sensor_id;sensor_type;location;lat;lon;timestamp;pressure;altitude;pressure_sealevel;temperature;humidity
66164;BME280;52962;51.088;3.096;2023-02-22T00:01:42;58706.69;;;-145.67;100.00
66164;BME280;52962;51.088;3.096;2023-02-22T00:04:18;58706.69;;;-145.67;100.00
66164;BME280;52962;51.088;3.096;2023-02-22T00:06:47;58706.69;;;-145.67;100.00
66164;BME280;52962;51.088;3.096;2023-02-22T00:09:16;58706.69;;;-145.67;100.00
66164;BME280;52962;51.088;3.096;2023-02-22T00:11:47;58706.69;;;-145.67;100.00
66164;BME280;52962;51.088;3.096;2023-02-22T00:14:16;58706.69;;;-145.67;100.00
66164;BME280;52962;51.088;3.096;2023-02-22T00:16:46;58706.69;;;-145.67;100.00
66164;BME280;52962;51.088;3.096;2023-02-22T00:19:14;58706.69;;;-145.67;100.00
66164;BME280;52962;51.088;3.096;2023-02-22T00:21:43;58706.69;;;-145.67;100.00
66164;BME280;52962;51.088;3.096;2023-02-22T00:24:13;58706.69;;;-145.67;100.00
66164;BME280;52962;51.088;3.096;2023-02-22T00:26:50;58706.69;;;-145.67;100.00
66164;BME280;52962;51.088;3.096;2023-02-22T00:29:22;58706.69;;;-145.67;100.00
66164;BME280;52962;51.088;3.096;2023-02-22T00:31:50;58706.69;;;-145.67;100.00
66164;BME280;52962;51.088;3.096;2023-02-22T00:34:19;58706.69;;;-145.67;100.00
66164;BME280;52962;51.088;3.096;2023-02-22T00:36:50;58706.69;;;-145.67;100.00
66164;BME280;52962;51.088;3.096;2023-02-22T00:39:18;58706.69;;;-145.67;100.00
66164;BME280;52962;51.088;3.096;2023-02-22T00:41:46;58706.69;;;-145.67;100.00
66164;BME280;52962;51.088;3.096;2023-02-22T00:44:15;58706.69;;;-145.67;100.00
66164;BME280;52962;51.088;3.096;2023-02-22T00:46:44;58706.69;;;-145.67;100.00
66164;BME280;52962;51.088;3.096;2023-02-22T00:49:13;58706.69;;;-145.67;100.00
66164;BME280;52962;51.088;3.096;2023-02-22T00:51:42;58706.69;;;-145.67;100.00
66164;BME280;52962;51.088;3.096;2023-02-22T00:54:11;58706.69;;;-145.67;100.00
66164;BME280;52962;51.088;3.096;2023-02-22T00:56:40;58706.69;;;-145.67;100.00
66164;BME280;52962;51.088;3.096;2023-02-22T00:59:08;58706.69;;;-145.67;100.00
66164;BME280;52962;51.088;3.096;2023-02-22T01:01:36;58706.69;;;-145.67;100.00
66164;BME280;52962;51.088;3.096;2023-02-22T01:04:04;58706.69;;;-145.67;100.00
66164;BME280;52962;51.088;3.096;2023-02-22T01:06:32;58706.69;;;-145.67;100.00
66164;BME280;52962;51.088;3.096;2023-02-22T01:09:02;58706.69;;;-145.67;100.00
66164;BME280;52962;51.088;3.096;2023-02-22T01:11:31;58706.69;;;-145.67;100.00
66164;BME280;52962;51.088;3.096;2023-02-22T01:14:00;58706.69;;;-145.67;100.00
66164;BME280;52962;51.088;3.096;2023-02-22T01:16:28;58706.69;;;-145.67;100.00
66164;BME280;52962;51.088;3.096;2023-02-22T01:18:56;58706.69;;;-145.67;100.00
66164;BME280;52962;51.088;3.096;2023-02-22T01:21:27;58706.69;;;-145.67;100.00
66164;BME280;52962;51.088;3.096;2023-02-22T01:23:55;58706.69;;;-145.67;100.00
66164;BME280;52962;51.088;3.096;2023-02-22T01:26:23;58706.69;;;-145.67;100.00
66164;BME280;52962;51.088;3.096;2023-02-22T01:28:52;58706.69;;;-145.67;100.00
66164;BME280;52962;51.088;3.096;2023-02-22T01:31:21;58706.69;;;-145.67;100.00
66164;BME280;52962;51.088;3.096;2023-02-22T01:33:50;58706.69;;;-145.67;100.00
66164;BME280;52962;51.088;3.096;2023-02-22T01:36:18;58706.69;;;-145.67;100.00
66164;BME280;52962;51.088;3.096;2023-02-22T01:38:46;58706.69;;;-145.67;100.00
66164;BME280;52962;51.088;3.096;2023-02-22T01:41:14;58706.69;;;-145.67;100.00
66164;BME280;52962;51.088;3.096;2023-02-22T01:43:44;58706.69;;;-145.67;100.00
66164;BME280;52962;51.088;3.096;2023-02-22T01:46:22;58706.69;;;-145.67;100.00
66164;BME280;52962;51.088;3.096;2023-02-22T01:48:54;58706.69;;;-145.67;100.00
66164;BME280;52962;51.088;3.096;2023-02-22T01:51:27;58706.69;;;-145.67;100.00
66164;BME280;52962;51.088;3.096;2023-02-22T01:53:58;58706.69;;;-145.67;100.00
66164;BME280;52962;51.088;3.096;2023-02-22T01:56:30;58706.69;;;-145.67;100.00
66164;BME280;52962;51.088;3.096;2023-02-22T01:59:01;58706.69;;;-145.67;100.00
66164;BME280;52962;51.088;3.096;2023-02-22T02:01:34;58706.69;;;-145.67;100.00
66164;BME280;52962;51.088;3.096;2023-02-22T02:04:06;58706.69;;;-145.67;100.00
66164;BME280;52962;51.088;3.096;2023-02-22T02:06:37;58706.69;;;-145.67;100.00
66164;BME280;52962;51.088;3.096;2023-02-22T02:09:12;58706.69;;;-145.67;100.00
66164;BME280;52962;51.088;3.096;2023-02-22T02:11:41;58706.69;;;-145.67;100.00
66164;BME280;52962;51.088;3.096;2023-02-22T02:14:11;58706.69;;;-145.67;100.00
66164;BME280;52962;51.088;3.096;2023-02-22T02:16:43;58706.69;;;-145.67;100.00
66164;BME280;52962;51.088;3.096;2023-02-22T02:19:18;58706.69;;;-145.67;100.00
66164;BME280;52962;51.088;3.096;2023-02-22T02:22:09;58706.69;;;-145.67;100.00
66164;BME280;52962;51.088;3.096;2023-02-22T02:25:03;58706.69;;;-145.67;100.00
66164;BME280;52962;51.088;3.096;2023-02-22T02:30:44;58706.69;;;-145.67;100.00
66164;BME280;52962;51.088;3.096;2023-02-22T02:33:21;58706.69;;;-145.67;100.00
66164;BME280;52962;51.088;3.096;2023-02-22T02:36:01;58706.69;;;-145.67;100.00
66164;BME280;52962;51.088;3.096;2023-02-22T02:38:33;58706.69;;;-145.67;100.00
66164;BME280;52962;51.088;3.096;2023-02-22T02:41:09;58706.69;;;-145.67;100.00
66164;BME280;52962;51.088;3.096;2023-02-22T02:43:46;58706.69;;;-145.67;100.00
66164;BME280;52962;51.088;3.096;2023-02-22T02:46:22;58706.69;;;-145.67;100.00
66164;BME280;52962;51.088;3.096;2023-02-22T02:48:56;58706.69;;;-145.67;100.00
66164;BME280;52962;51.088;3.096;2023-02-22T02:51:29;58706.69;;;-145.67;100.00
66164;BME280;52962;51.088;3.096;2023-02-22T02:54:00;58706.69;;;-145.67;100.00
66164;BME280;52962;51.088;3.096;2023-02-22T02:56:30;58706.69;;;-145.67;100.00
66164;BME280;52962;51.088;3.096;2023-02-22T02:58:59;58706.69;;;-145.67;100.00
66164;BME280;52962;51.088;3.096;2023-02-22T03:01:44;58706.69;;;-145.67;100.00
66164;BME280;52962;51.088;3.096;2023-02-22T03:04:33;58706.69;;;-145.67;100.00
66164;BME280;52962;51.088;3.096;2023-02-22T03:07:16;58706.69;;;-145.67;100.00
66164;BME280;52962;51.088;3.096;2023-02-22T03:09:57;58706.69;;;-145.67;100.00
66164;BME280;52962;51.088;3.096;2023-02-22T03:12:37;58706.69;;;-145.67;100.00
66164;BME280;52962;51.088;3.096;2023-02-22T03:15:14;58706.69;;;-145.67;100.00
66164;BME280;52962;51.088;3.096;2023-02-22T03:17:53;58706.69;;;-145.67;100.00
66164;BME280;52962;51.088;3.096;2023-02-22T03:20:29;58706.69;;;-145.67;100.00
66164;BME280;52962;51.088;3.096;2023-02-22T03:23:03;58706.69;;;-145.67;100.00
66164;BME280;52962;51.088;3.096;2023-02-22T03:25:36;58706.69;;;-145.67;100.00
66164;BME280;52962;51.088;3.096;2023-02-22T03:28:09;58706.69;;;-145.67;100.00
66164;BME280;52962;51.088;3.096;2023-02-22T03:30:41;58706.69;;;-145.67;100.00
66164;BME280;52962;51.088;3.096;2023-02-22T03:33:15;58706.69;;;-145.67;100.00
66164;BME280;52962;51.088;3.096;2023-02-22T03:36:02;58706.69;;;-145.67;100.00
66164;BME280;52962;51.088;3.096;2023-02-22T03:38:33;58706.69;;;-145.67;100.00
66164;BME280;52962;51.088;3.096;2023-02-22T03:41:05;58706.69;;;-145.67;100.00
66164;BME280;52962;51.088;3.096;2023-02-22T03:43:38;58706.69;;;-145.67;100.00
66164;BME280;52962;51.088;3.096;2023-02-22T03:46:13;58706.69;;;-145.67;100.00
66164;BME280;52962;51.088;3.096;2023-02-22T03:48:47;58706.69;;;-145.67;100.00
66164;BME280;52962;51.088;3.096;2023-02-22T03:51:22;58706.69;;;-145.67;100.00
66164;BME280;52962;51.088;3.096;2023-02-22T03:53:57;58706.69;;;-145.67;100.00
66164;BME280;52962;51.088;3.096;2023-02-22T03:56:38;58706.69;;;-145.67;100.00
66164;BME280;52962;51.088;3.096;2023-02-22T03:59:13;58706.69;;;-145.67;100.00
66164;BME280;52962;51.088;3.096;2023-02-22T04:01:43;58706.69;;;-145.67;100.00
66164;BME280;52962;51.088;3.096;2023-02-22T04:04:12;58706.69;;;-145.67;100.00
66164;BME280;52962;51.088;3.096;2023-02-22T04:06:41;58706.69;;;-145.67;100.00
66164;BME280;52962;51.088;3.096;2023-02-22T04:09:11;58706.69;;;-145.67;100.00
66164;BME280;52962;51.088;3.096;2023-02-22T04:11:39;58706.69;;;-145.67;100.00
66164;BME280;52962;51.088;3.096;2023-02-22T04:14:07;58706.69;;;-145.67;100.00
66164;BME280;52962;51.088;3.096;2023-02-22T04:16:35;58706.69;;;-145.67;100.00
66164;BME280;52962;51.088;3.096;2023-02-22T04:19:07;58706.69;;;-145.67;100.00
66164;BME280;52962;51.088;3.096;2023-02-22T04:21:37;58706.69;;;-145.67;100.00
66164;BME280;52962;51.088;3.096;2023-02-22T04:24:13;58706.69;;;-145.67;100.00
66164;BME280;52962;51.088;3.096;2023-02-22T04:26:41;58706.69;;;-145.67;100.00
66164;BME280;52962;51.088;3.096;2023-02-22T04:29:10;58706.69;;;-145.67;100.00
66164;BME280;52962;51.088;3.096;2023-02-22T04:31:39;58706.69;;;-145.67;100.00
66164;BME280;52962;51.088;3.096;2023-02-22T04:34:09;58706.69;;;-145.67;100.00
66164;BME280;52962;51.088;3.096;2023-02-22T04:36:39;58706.69;;;-145.67;100.00
66164;BME280;52962;51.088;3.096;2023-02-22T04:39:10;58706.69;;;-145.67;100.00
66164;BME280;52962;51.088;3.096;2023-02-22T04:41:40;58706.69;;;-145.67;100.00
66164;BME280;52962;51.088;3.096;2023-02-22T04:44:08;58706.69;;;-145.67;100.00
66164;BME280;52962;51.088;3.096;2023-02-22T04:46:36;58706.69;;;-145.67;100.00
66164;BME280;52962;51.088;3.096;2023-02-22T04:49:04;58706.69;;;-145.67;100.00
66164;BME280;52962;51.088;3.096;2023-02-22T04:51:35;58706.69;;;-145.67;100.00
66164;BME280;52962;51.088;3.096;2023-02-22T04:54:06;58706.69;;;-145.67;100.00
66164;BME280;52962;51.088;3.096;2023-02-22T04:56:37;58706.69;;;-145.67;100.00
66164;BME280;52962;51.088;3.096;2023-02-22T04:59:06;58706.69;;;-145.67;100.00
66164;BME280;52962;51.088;3.096;2023-02-22T05:01:36;58706.69;;;-145.67;100.00
66164;BME280;52962;51.088;3.096;2023-02-22T05:04:06;58706.69;;;-145.67;100.00
66164;BME280;52962;51.088;3.096;2023-02-22T05:06:34;58706.69;;;-145.67;100.00
66164;BME280;52962;51.088;3.096;2023-02-22T05:09:03;58706.69;;;-145.67;100.00
66164;BME280;52962;51.088;3.096;2023-02-22T05:11:31;58706.69;;;-145.67;100.00
66164;BME280;52962;51.088;3.096;2023-02-22T05:13:59;58706.69;;;-145.67;100.00
66164;BME280;52962;51.088;3.096;2023-02-22T05:16:29;58706.69;;;-145.67;100.00
66164;BME280;52962;51.088;3.096;2023-02-22T05:18:57;58706.69;;;-145.67;100.00
66164;BME280;52962;51.088;3.096;2023-02-22T05:21:25;58706.69;;;-145.67;100.00
66164;BME280;52962;51.088;3.096;2023-02-22T05:23:53;58706.69;;;-145.67;100.00
66164;BME280;52962;51.088;3.096;2023-02-22T05:26:21;58706.69;;;-145.67;100.00
66164;BME280;52962;51.088;3.096;2023-02-22T05:28:49;58706.69;;;-145.67;100.00
66164;BME280;52962;51.088;3.096;2023-02-22T05:31:17;58706.69;;;-145.67;100.00
66164;BME280;52962;51.088;3.096;2023-02-22T05:33:47;58706.69;;;-145.67;100.00
66164;BME280;52962;51.088;3.096;2023-02-22T05:36:15;58706.69;;;-145.67;100.00
66164;BME280;52962;51.088;3.096;2023-02-22T05:38:43;58706.69;;;-145.67;100.00
66164;BME280;52962;51.088;3.096;2023-02-22T05:41:11;58706.69;;;-145.67;100.00
66164;BME280;52962;51.088;3.096;2023-02-22T05:43:40;58706.69;;;-145.67;100.00
66164;BME280;52962;51.088;3.096;2023-02-22T05:46:08;58706.69;;;-145.67;100.00
66164;BME280;52962;51.088;3.096;2023-02-22T05:48:36;58706.69;;;-145.67;100.00
66164;BME280;52962;51.088;3.096;2023-02-22T05:51:06;58706.69;;;-145.67;100.00
66164;BME280;52962;51.088;3.096;2023-02-22T05:53:35;58706.69;;;-145.67;100.00
66164;BME280;52962;51.088;3.096;2023-02-22T05:56:04;58706.69;;;-145.67;100.00
66164;BME280;52962;51.088;3.096;2023-02-22T05:58:32;58706.69;;;-145.67;100.00
66164;BME280;52962;51.088;3.096;2023-02-22T06:01:00;58706.69;;;-145.67;100.00
66164;BME280;52962;51.088;3.096;2023-02-22T06:03:29;58706.69;;;-145.67;100.00
66164;BME280;52962;51.088;3.096;2023-02-22T06:05:57;58706.69;;;-145.67;100.00
66164;BME280;52962;51.088;3.096;2023-02-22T06:08:26;58706.69;;;-145.67;100.00
66164;BME280;52962;51.088;3.096;2023-02-22T06:10:55;58706.69;;;-145.67;100.00
66164;BME280;52962;51.088;3.096;2023-02-22T06:13:22;58706.69;;;-145.67;100.00
66164;BME280;52962;51.088;3.096;2023-02-22T06:15:51;58706.69;;;-145.67;100.00
66164;BME280;52962;51.088;3.096;2023-02-22T06:18:19;58706.69;;;-145.67;100.00
66164;BME280;52962;51.088;3.096;2023-02-22T06:20:47;58706.69;;;-145.67;100.00
66164;BME280;52962;51.088;3.096;2023-02-22T06:23:16;58706.69;;;-145.67;100.00
66164;BME280;52962;51.088;3.096;2023-02-22T06:25:46;58706.69;;;-145.67;100.00
66164;BME280;52962;51.088;3.096;2023-02-22T06:28:15;58706.69;;;-145.67;100.00
66164;BME280;52962;51.088;3.096;2023-02-22T06:30:43;58706.69;;;-145.67;100.00
66164;BME280;52962;51.088;3.096;2023-02-22T06:33:11;58706.69;;;-145.67;100.00
66164;BME280;52962;51.088;3.096;2023-02-22T06:35:39;58706.69;;;-145.67;100.00
66164;BME280;52962;51.088;3.096;2023-02-22T06:38:07;58706.69;;;-145.67;100.00
66164;BME280;52962;51.088;3.096;2023-02-22T06:40:36;58706.69;;;-145.67;100.00
66164;BME280;52962;51.088;3.096;2023-02-22T06:43:05;58706.69;;;-145.67;100.00
66164;BME280;52962;51.088;3.096;2023-02-22T06:45:33;58706.69;;;-145.67;100.00
66164;BME280;52962;51.088;3.096;2023-02-22T06:48:01;58706.69;;;-145.67;100.00
66164;BME280;52962;51.088;3.096;2023-02-22T06:50:29;58706.69;;;-145.67;100.00
66164;BME280;52962;51.088;3.096;2023-02-22T06:53:00;58706.69;;;-145.67;100.00
66164;BME280;52962;51.088;3.096;2023-02-22T06:55:29;58706.69;;;-145.67;100.00
66164;BME280;52962;51.088;3.096;2023-02-22T06:57:58;58706.69;;;-145.67;100.00
66164;BME280;52962;51.088;3.096;2023-02-22T07:00:28;58706.69;;;-145.67;100.00
66164;BME280;52962;51.088;3.096;2023-02-22T07:02:57;58706.69;;;-145.67;100.00
66164;BME280;52962;51.088;3.096;2023-02-22T07:05:26;58706.69;;;-145.67;100.00
66164;BME280;52962;51.088;3.096;2023-02-22T07:08:01;58706.69;;;-145.67;100.00
66164;BME280;52962;51.088;3.096;2023-02-22T07:10:31;58706.69;;;-145.67;100.00
66164;BME280;52962;51.088;3.096;2023-02-22T07:12:59;58706.69;;;-145.67;100.00
66164;BME280;52962;51.088;3.096;2023-02-22T07:15:31;58706.69;;;-145.67;100.00
66164;BME280;52962;51.088;3.096;2023-02-22T07:18:00;58706.69;;;-145.67;100.00
66164;BME280;52962;51.088;3.096;2023-02-22T07:20:29;58706.69;;;-145.67;100.00
66164;BME280;52962;51.088;3.096;2023-02-22T07:22:58;58706.69;;;-145.67;100.00
66164;BME280;52962;51.088;3.096;2023-02-22T07:25:27;58706.69;;;-145.67;100.00
66164;BME280;52962;51.088;3.096;2023-02-22T07:27:55;58706.69;;;-145.67;100.00
66164;BME280;52962;51.088;3.096;2023-02-22T07:30:25;58706.69;;;-145.67;100.00
66164;BME280;52962;51.088;3.096;2023-02-22T07:33:00;58706.69;;;-145.67;100.00
66164;BME280;52962;51.088;3.096;2023-02-22T07:35:31;58706.69;;;-145.67;100.00
66164;BME280;52962;51.088;3.096;2023-02-22T07:37:59;58706.69;;;-145.67;100.00
66164;BME280;52962;51.088;3.096;2023-02-22T07:46:11;58706.69;;;-145.67;100.00
66164;BME280;52962;51.088;3.096;2023-02-22T07:48:40;58706.69;;;-145.67;100.00
66164;BME280;52962;51.088;3.096;2023-02-22T07:51:09;58706.69;;;-145.67;100.00
66164;BME280;52962;51.088;3.096;2023-02-22T07:53:36;58706.69;;;-145.67;100.00
66164;BME280;52962;51.088;3.096;2023-02-22T07:56:05;58706.69;;;-145.67;100.00
66164;BME280;52962;51.088;3.096;2023-02-22T07:58:34;58706.69;;;-145.67;100.00
66164;BME280;52962;51.088;3.096;2023-02-22T08:01:03;58706.69;;;-145.67;100.00
66164;BME280;52962;51.088;3.096;2023-02-22T08:03:33;58706.69;;;-145.67;100.00
66164;BME280;52962;51.088;3.096;2023-02-22T08:06:05;58706.69;;;-145.67;100.00
66164;BME280;52962;51.088;3.096;2023-02-22T08:08:33;58706.69;;;-145.67;100.00
66164;BME280;52962;51.088;3.096;2023-02-22T08:11:02;58706.69;;;-145.67;100.00
66164;BME280;52962;51.088;3.096;2023-02-22T08:13:31;58706.69;;;-145.67;100.00
66164;BME280;52962;51.088;3.096;2023-02-22T08:15:59;58706.69;;;-145.67;100.00
66164;BME280;52962;51.088;3.096;2023-02-22T08:18:28;58706.69;;;-145.67;100.00
66164;BME280;52962;51.088;3.096;2023-02-22T08:20:56;58706.69;;;-145.67;100.00
66164;BME280;52962;51.088;3.096;2023-02-22T08:23:25;58706.69;;;-145.67;100.00
66164;BME280;52962;51.088;3.096;2023-02-22T08:25:54;58706.69;;;-145.67;100.00
66164;BME280;52962;51.088;3.096;2023-02-22T08:28:23;58706.69;;;-145.67;100.00
66164;BME280;52962;51.088;3.096;2023-02-22T08:30:51;58706.69;;;-145.67;100.00
66164;BME280;52962;51.088;3.096;2023-02-22T08:33:20;58706.69;;;-145.67;100.00
66164;BME280;52962;51.088;3.096;2023-02-22T08:35:48;58706.69;;;-145.67;100.00
66164;BME280;52962;51.088;3.096;2023-02-22T08:38:20;58706.69;;;-145.67;100.00
66164;BME280;52962;51.088;3.096;2023-02-22T08:40:51;58706.69;;;-145.67;100.00
66164;BME280;52962;51.088;3.096;2023-02-22T08:43:20;58706.69;;;-145.67;100.00
66164;BME280;52962;51.088;3.096;2023-02-22T08:45:49;58706.69;;;-145.67;100.00
66164;BME280;52962;51.088;3.096;2023-02-22T08:48:19;58706.69;;;-145.67;100.00
66164;BME280;52962;51.088;3.096;2023-02-22T08:50:48;58706.69;;;-145.67;100.00
66164;BME280;52962;51.088;3.096;2023-02-22T08:53:16;58706.69;;;-145.67;100.00
66164;BME280;52962;51.088;3.096;2023-02-22T08:55:44;58706.69;;;-145.67;100.00
66164;BME280;52962;51.088;3.096;2023-02-22T08:58:14;58706.69;;;-145.67;100.00
66164;BME280;52962;51.088;3.096;2023-02-22T09:00:42;58706.69;;;-145.67;100.00
66164;BME280;52962;51.088;3.096;2023-02-22T09:03:12;58706.69;;;-145.67;100.00
66164;BME280;52962;51.088;3.096;2023-02-22T09:05:41;58706.69;;;-145.67;100.00
66164;BME280;52962;51.088;3.096;2023-02-22T09:08:09;58706.69;;;-145.67;100.00
66164;BME280;52962;51.088;3.096;2023-02-22T09:10:38;58706.69;;;-145.67;100.00
66164;BME280;52962;51.088;3.096;2023-02-22T09:13:06;58706.69;;;-145.67;100.00
66164;BME280;52962;51.088;3.096;2023-02-22T09:15:36;58706.69;;;-145.67;100.00
66164;BME280;52962;51.088;3.096;2023-02-22T09:18:06;58706.69;;;-145.67;100.00
66164;BME280;52962;51.088;3.096;2023-02-22T09:20:35;58706.69;;;-145.67;100.00
66164;BME280;52962;51.088;3.096;2023-02-22T09:23:04;58706.69;;;-145.67;100.00
66164;BME280;52962;51.088;3.096;2023-02-22T09:25:33;58706.69;;;-145.67;100.00
66164;BME280;52962;51.088;3.096;2023-02-22T09:28:01;58706.69;;;-145.67;100.00
66164;BME280;52962;51.088;3.096;2023-02-22T09:30:31;58706.69;;;-145.67;100.00
66164;BME280;52962;51.088;3.096;2023-02-22T09:33:04;58706.69;;;-145.67;100.00
66164;BME280;52962;51.088;3.096;2023-02-22T09:35:36;58706.69;;;-145.67;100.00
66164;BME280;52962;51.088;3.096;2023-02-22T09:38:08;58706.69;;;-145.67;100.00
66164;BME280;52962;51.088;3.096;2023-02-22T09:40:39;58706.69;;;-145.67;100.00
66164;BME280;52962;51.088;3.096;2023-02-22T09:43:20;58706.69;;;-145.67;100.00
66164;BME280;52962;51.088;3.096;2023-02-22T09:46:08;58706.69;;;-145.67;100.00
66164;BME280;52962;51.088;3.096;2023-02-22T09:48:52;58706.69;;;-145.67;100.00
66164;BME280;52962;51.088;3.096;2023-02-22T09:51:27;58706.69;;;-145.67;100.00
66164;BME280;52962;51.088;3.096;2023-02-22T09:53:59;58706.69;;;11.12;100.00
66164;BME280;52962;51.088;3.096;2023-02-22T09:56:28;58706.69;;;-145.67;100.00
66164;BME280;52962;51.088;3.096;2023-02-22T09:59:01;58706.69;;;-145.67;100.00
66164;BME280;52962;51.088;3.096;2023-02-22T10:01:32;100858.91;;;8.13;100.00
66164;BME280;52962;51.088;3.096;2023-02-22T10:04:10;100874.91;;;8.50;100.00
66164;BME280;52962;51.088;3.096;2023-02-22T10:06:58;100881.09;;;8.52;100.00
66164;BME280;52962;51.088;3.096;2023-02-22T10:09:34;100882.88;;;8.53;100.00
66164;BME280;52962;51.088;3.096;2023-02-22T10:12:12;100877.78;;;8.60;100.00
66164;BME280;52962;51.088;3.096;2023-02-22T10:14:48;100869.97;;;8.61;100.00
66164;BME280;52962;51.088;3.096;2023-02-22T10:17:23;100881.53;;;8.68;100.00
66164;BME280;52962;51.088;3.096;2023-02-22T10:20:17;100882.50;;;8.71;100.00
66164;BME280;52962;51.088;3.096;2023-02-22T10:22:58;58706.69;;;-145.67;100.00
66164;BME280;52962;51.088;3.096;2023-02-22T10:25:33;100882.50;;;8.71;100.00
66164;BME280;52962;51.088;3.096;2023-02-22T10:28:09;100890.94;;;8.91;100.00
66164;BME280;52962;51.088;3.096;2023-02-22T10:30:42;100890.22;;;8.97;100.00
66164;BME280;52962;51.088;3.096;2023-02-22T10:33:21;100891.19;;;9.00;100.00
66164;BME280;52962;51.088;3.096;2023-02-22T10:35:54;100886.03;;;9.03;100.00
66164;BME280;52962;51.088;3.096;2023-02-22T10:38:24;100895.56;;;9.00;100.00
66164;BME280;52962;51.088;3.096;2023-02-22T10:40:55;100900.75;;;8.97;100.00
66164;BME280;52962;51.088;3.096;2023-02-22T10:43:24;100888.41;;;8.94;100.00
66164;BME280;52962;51.088;3.096;2023-02-22T10:45:55;100898.84;;;8.91;100.00
66164;BME280;52962;51.088;3.096;2023-02-22T10:48:25;100899.69;;;8.90;100.00
66164;BME280;52962;51.088;3.096;2023-02-22T10:50:59;100896.28;;;8.94;100.00
66164;BME280;52962;51.088;3.096;2023-02-22T10:53:28;100890.19;;;8.95;100.00
66164;BME280;52962;51.088;3.096;2023-02-22T10:56:12;100898.06;;;8.95;100.00
66164;BME280;52962;51.088;3.096;2023-02-22T10:58:44;100896.28;;;8.94;100.00
66164;BME280;52962;51.088;3.096;2023-02-22T11:01:18;100885.88;;;8.97;100.00
66164;BME280;52962;51.088;3.096;2023-02-22T11:03:56;100892.97;;;9.01;100.00
66164;BME280;52962;51.088;3.096;2023-02-22T11:06:26;100899.03;;;8.99;100.00
66164;BME280;52962;51.088;3.096;2023-02-22T11:09:09;100898.06;;;8.95;100.00
66164;BME280;52962;51.088;3.096;2023-02-22T11:11:39;100898.75;;;8.88;100.00
66164;BME280;52962;51.088;3.096;2023-02-22T11:14:08;100893.22;;;8.79;100.00
66164;BME280;52962;51.088;3.096;2023-02-22T11:16:39;100894.16;;;8.81;100.00
66164;BME280;52962;51.088;3.096;2023-02-22T11:19:17;100897.47;;;8.74;100.00
66164;BME280;52962;51.088;3.096;2023-02-22T11:21:49;100900.09;;;8.74;100.00
66164;BME280;52962;51.088;3.096;2023-02-22T11:24:20;100901.91;;;8.76;100.00
66164;BME280;52962;51.088;3.096;2023-02-22T11:26:53;100897.53;;;8.77;100.00
66164;BME280;52962;51.088;3.096;2023-02-22T11:29:25;100906.28;;;8.76;100.00
66164;BME280;52962;51.088;3.096;2023-02-22T11:31:54;100907.03;;;8.72;100.00
66164;BME280;52962;51.088;3.096;2023-02-22T11:34:32;100907.91;;;8.72;100.00
66164;BME280;52962;51.088;3.096;2023-02-22T11:37:31;100904.50;;;8.75;100.00
66164;BME280;52962;51.088;3.096;2023-02-22T11:40:05;100887.94;;;8.77;100.00
66164;BME280;52962;51.088;3.096;2023-02-22T11:42:37;100895.09;;;8.83;100.00
66164;BME280;52962;51.088;3.096;2023-02-22T11:45:12;100908.22;;;8.83;100.00
66164;BME280;52962;51.088;3.096;2023-02-22T11:47:50;100906.44;;;8.82;100.00
66164;BME280;52962;51.088;3.096;2023-02-22T11:50:25;100908.22;;;8.83;100.00
66164;BME280;52962;51.088;3.096;2023-02-22T11:53:14;100903.94;;;8.87;100.00
66164;BME280;52962;51.088;3.096;2023-02-22T11:55:57;100908.31;;;8.86;100.00
66164;BME280;52962;51.088;3.096;2023-02-22T11:58:41;100892.63;;;8.89;100.00
66164;BME280;52962;51.088;3.096;2023-02-22T12:01:21;100890.06;;;8.91;100.00
66164;BME280;52962;51.088;3.096;2023-02-22T12:04:13;100892.72;;;8.92;100.00
66164;BME280;52962;51.088;3.096;2023-02-22T12:06:54;100887.56;;;8.95;100.00
66164;BME280;52962;51.088;3.096;2023-02-22T12:09:36;100888.44;;;8.96;100.00
66164;BME280;52962;51.088;3.096;2023-02-22T12:12:16;100895.53;;;8.98;100.00
66164;BME280;52962;51.088;3.096;2023-02-22T12:14:56;100900.00;;;9.02;100.00
66164;BME280;52962;51.088;3.096;2023-02-22T12:17:34;100901.06;;;9.09;100.00
66164;BME280;52962;51.088;3.096;2023-02-22T12:20:16;100888.06;;;9.13;100.00
66164;BME280;52962;51.088;3.096;2023-02-22T12:22:57;100884.66;;;9.17;100.00
66164;BME280;52962;51.088;3.096;2023-02-22T12:25:32;100882.97;;;9.20;100.00
66164;BME280;52962;51.088;3.096;2023-02-22T12:28:10;100881.34;;;9.25;100.00
66164;BME280;52962;51.088;3.096;2023-02-22T12:30:55;100882.44;;;9.33;100.00
66164;BME280;52962;51.088;3.096;2023-02-22T12:33:28;100884.22;;;9.34;100.00
66164;BME280;52962;51.088;3.096;2023-02-22T12:35:59;100886.00;;;9.36;100.00
66164;BME280;52962;51.088;3.096;2023-02-22T12:38:31;100876.41;;;9.38;100.00
66164;BME280;52962;51.088;3.096;2023-02-22T12:41:08;100875.69;;;9.44;100.00
66164;BME280;52962;51.088;3.096;2023-02-22T12:43:46;100876.63;;;9.46;100.00
66164;BME280;52962;51.088;3.096;2023-02-22T12:46:20;100883.72;;;9.50;100.00
66164;BME280;52962;51.088;3.096;2023-02-22T12:48:53;100893.34;;;9.49;100.00
66164;BME280;52962;51.088;3.096;2023-02-22T12:51:27;100894.41;;;9.56;100.00
66164;BME280;52962;51.088;3.096;2023-02-22T12:54:04;100894.47;;;9.59;100.00
66164;BME280;52962;51.088;3.096;2023-02-22T12:56:39;100893.63;;;9.60;100.00
66164;BME280;52962;51.088;3.096;2023-02-22T12:59:14;100899.03;;;9.66;100.00
66164;BME280;52962;51.088;3.096;2023-02-22T13:01:46;100901.97;;;9.78;100.00
66164;BME280;52962;51.088;3.096;2023-02-22T13:04:16;100903.91;;;9.86;100.00
66164;BME280;52962;51.088;3.096;2023-02-22T13:07:06;100902.34;;;9.94;100.00
66164;BME280;52962;51.088;3.096;2023-02-22T13:09:58;100887.81;;;10.09;100.00